sensor_id;sensor_type;location;lat;lon;timestamp;P1;durP1;ratioP1;P2;durP2;ratioP2
37903;SDS011;23738;50.422;18.758;2024-02-21T00:02:22;36.40;;;16.30;;
37903;SDS011;23738;50.422;18.758;2024-02-21T00:05:57;31.10;;;13.50;;
37903;SDS011;23738;50.422;18.758;2024-02-21T00:08:27;31.60;;;13.40;;
37903;SDS011;23738;50.422;18.758;2024-02-21T00:10:56;35.10;;;15.50;;
37903;SDS011;23738;50.422;18.758;2024-02-21T00:13:26;32.90;;;15.20;;
37903;SDS011;23738;50.422;18.758;2024-02-21T00:15:56;41.50;;;17.50;;
37903;SDS011;23738;50.422;18.758;2024-02-21T00:18:45;43.60;;;18.70;;
37903;SDS011;23738;50.422;18.758;2024-02-21T00:21:15;45.20;;;19.50;;
37903;SDS011;23738;50.422;18.758;2024-02-21T00:23:45;56.80;;;23.10;;
37903;SDS011;23738;50.422;18.758;2024-02-21T00:26:17;45.30;;;19.10;;
37903;SDS011;23738;50.422;18.758;2024-02-21T00:28:47;48.90;;;21.00;;
37903;SDS011;23738;50.422;18.758;2024-02-21T00:31:16;51.60;;;21.90;;
37903;SDS011;23738;50.422;18.758;2024-02-21T00:33:51;48.90;;;23.50;;
37903;SDS011;23738;50.422;18.758;2024-02-21T00:36:20;42.20;;;18.80;;
37903;SDS011;23738;50.422;18.758;2024-02-21T00:38:50;39.00;;;17.50;;
37903;SDS011;23738;50.422;18.758;2024-02-21T00:41:19;36.80;;;15.90;;
37903;SDS011;23738;50.422;18.758;2024-02-21T00:43:49;27.00;;;13.70;;
37903;SDS011;23738;50.422;18.758;2024-02-21T00:47:16;33.20;;;15.70;;
37903;SDS011;23738;50.422;18.758;2024-02-21T00:49:51;45.00;;;18.40;;
37903;SDS011;23738;50.422;18.758;2024-02-21T00:52:21;32.60;;;15.90;;
37903;SDS011;23738;50.422;18.758;2024-02-21T00:54:51;32.40;;;13.00;;
37903;SDS011;23738;50.422;18.758;2024-02-21T00:57:21;26.10;;;11.50;;
37903;SDS011;23738;50.422;18.758;2024-02-21T00:59:50;24.00;;;9.40;;
37903;SDS011;23738;50.422;18.758;2024-02-21T01:02:40;30.30;;;11.40;;
37903;SDS011;23738;50.422;18.758;2024-02-21T01:05:10;26.20;;;11.90;;
37903;SDS011;23738;50.422;18.758;2024-02-21T01:07:39;21.20;;;12.00;;
37903;SDS011;23738;50.422;18.758;2024-02-21T01:10:09;28.70;;;12.80;;
37903;SDS011;23738;50.422;18.758;2024-02-21T01:12:39;24.70;;;12.20;;
37903;SDS011;23738;50.422;18.758;2024-02-21T01:15:47;26.20;;;10.20;;
37903;SDS011;23738;50.422;18.758;2024-02-21T01:18:17;22.10;;;10.30;;
37903;SDS011;23738;50.422;18.758;2024-02-21T01:21:46;21.10;;;11.40;;
37903;SDS011;23738;50.422;18.758;2024-02-21T01:25:01;28.10;;;12.60;;
37903;SDS011;23738;50.422;18.758;2024-02-21T01:28:45;34.90;;;13.00;;
37903;SDS011;23738;50.422;18.758;2024-02-21T01:32:21;26.90;;;11.40;;
37903;SDS011;23738;50.422;18.758;2024-02-21T01:35:54;22.90;;;10.10;;
37903;SDS011;23738;50.422;18.758;2024-02-21T01:39:23;27.50;;;10.70;;
37903;SDS011;23738;50.422;18.758;2024-02-21T01:42:53;28.30;;;10.70;;
37903;SDS011;23738;50.422;18.758;2024-02-21T01:46:25;28.90;;;10.50;;
37903;SDS011;23738;50.422;18.758;2024-02-21T01:49:47;30.10;;;9.40;;
37903;SDS011;23738;50.422;18.758;2024-02-21T01:52:35;18.70;;;7.70;;
37903;SDS011;23738;50.422;18.758;2024-02-21T01:55:05;18.00;;;7.70;;
37903;SDS011;23738;50.422;18.758;2024-02-21T01:58:35;23.80;;;8.80;;
37903;SDS011;23738;50.422;18.758;2024-02-21T02:02:02;17.60;;;7.80;;
37903;SDS011;23738;50.422;18.758;2024-02-21T02:05:31;22.80;;;8.90;;
37903;SDS011;23738;50.422;18.758;2024-02-21T02:09:01;19.20;;;7.10;;
37903;SDS011;23738;50.422;18.758;2024-02-21T02:12:46;15.30;;;7.60;;
37903;SDS011;23738;50.422;18.758;2024-02-21T02:16:25;16.60;;;7.30;;
37903;SDS011;23738;50.422;18.758;2024-02-21T02:19:56;20.30;;;8.50;;
37903;SDS011;23738;50.422;18.758;2024-02-21T02:23:29;23.10;;;9.00;;
37903;SDS011;23738;50.422;18.758;2024-02-21T02:26:57;16.40;;;8.30;;
37903;SDS011;23738;50.422;18.758;2024-02-21T02:30:28;21.70;;;7.50;;
37903;SDS011;23738;50.422;18.758;2024-02-21T02:33:52;20.10;;;8.80;;
37903;SDS011;23738;50.422;18.758;2024-02-21T02:37:24;16.80;;;7.80;;
37903;SDS011;23738;50.422;18.758;2024-02-21T02:40:56;22.40;;;9.20;;
37903;SDS011;23738;50.422;18.758;2024-02-21T02:44:29;25.80;;;9.80;;
37903;SDS011;23738;50.422;18.758;2024-02-21T02:47:58;18.70;;;8.40;;
37903;SDS011;23738;50.422;18.758;2024-02-21T02:51:28;21.90;;;9.10;;
37903;SDS011;23738;50.422;18.758;2024-02-21T02:54:57;20.70;;;8.10;;
37903;SDS011;23738;50.422;18.758;2024-02-21T03:01:44;17.60;;;7.80;;
37903;SDS011;23738;50.422;18.758;2024-02-21T03:05:20;15.80;;;6.20;;
37903;SDS011;23738;50.422;18.758;2024-02-21T03:08:34;16.00;;;6.60;;
37903;SDS011;23738;50.422;18.758;2024-02-21T03:12:17;20.40;;;7.00;;
37903;SDS011;23738;50.422;18.758;2024-02-21T03:15:30;16.80;;;7.30;;
37903;SDS011;23738;50.422;18.758;2024-02-21T03:18:59;12.00;;;6.80;;
37903;SDS011;23738;50.422;18.758;2024-02-21T03:22:26;14.60;;;6.80;;
37903;SDS011;23738;50.422;18.758;2024-02-21T03:25:56;14.50;;;6.70;;
37903;SDS011;23738;50.422;18.758;2024-02-21T03:29:27;15.00;;;6.50;;
37903;SDS011;23738;50.422;18.758;2024-02-21T03:33:07;14.50;;;6.90;;
37903;SDS011;23738;50.422;18.758;2024-02-21T03:36:16;20.60;;;6.80;;
37903;SDS011;23738;50.422;18.758;2024-02-21T03:39:46;16.00;;;6.40;;
37903;SDS011;23738;50.422;18.758;2024-02-21T03:43:17;19.90;;;6.40;;
37903;SDS011;23738;50.422;18.758;2024-02-21T03:46:46;25.20;;;7.40;;
37903;SDS011;23738;50.422;18.758;2024-02-21T03:50:17;16.00;;;8.00;;
37903;SDS011;23738;50.422;18.758;2024-02-21T03:53:46;22.90;;;8.40;;
37903;SDS011;23738;50.422;18.758;2024-02-21T03:57:14;15.50;;;7.40;;
37903;SDS011;23738;50.422;18.758;2024-02-21T04:00:40;11.90;;;7.30;;
37903;SDS011;23738;50.422;18.758;2024-02-21T04:04:03;16.20;;;7.80;;
37903;SDS011;23738;50.422;18.758;2024-02-21T04:06:47;17.40;;;7.80;;
37903;SDS011;23738;50.422;18.758;2024-02-21T04:09:17;15.40;;;7.30;;
37903;SDS011;23738;50.422;18.758;2024-02-21T04:11:47;16.80;;;7.20;;
37903;SDS011;23738;50.422;18.758;2024-02-21T04:15:21;18.30;;;8.10;;
37903;SDS011;23738;50.422;18.758;2024-02-21T04:18:48;12.60;;;6.90;;
37903;SDS011;23738;50.422;18.758;2024-02-21T04:22:33;12.00;;;6.10;;
37903;SDS011;23738;50.422;18.758;2024-02-21T04:26:00;10.20;;;6.20;;
37903;SDS011;23738;50.422;18.758;2024-02-21T04:29:27;16.70;;;8.00;;
37903;SDS011;23738;50.422;18.758;2024-02-21T04:33:05;17.40;;;6.20;;
37903;SDS011;23738;50.422;18.758;2024-02-21T04:36:40;16.90;;;6.30;;
37903;SDS011;23738;50.422;18.758;2024-02-21T04:40:08;12.30;;;7.00;;
37903;SDS011;23738;50.422;18.758;2024-02-21T04:43:37;12.60;;;7.10;;
37903;SDS011;23738;50.422;18.758;2024-02-21T04:47:02;12.60;;;6.70;;
37903;SDS011;23738;50.422;18.758;2024-02-21T04:50:31;17.10;;;6.70;;
37903;SDS011;23738;50.422;18.758;2024-02-21T04:54:01;13.80;;;7.00;;
37903;SDS011;23738;50.422;18.758;2024-02-21T04:56:56;14.00;;;7.00;;
37903;SDS011;23738;50.422;18.758;2024-02-21T05:00:34;13.60;;;8.40;;
37903;SDS011;23738;50.422;18.758;2024-02-21T05:04:03;17.20;;;8.70;;
37903;SDS011;23738;50.422;18.758;2024-02-21T05:07:33;18.80;;;7.10;;
37903;SDS011;23738;50.422;18.758;2024-02-21T05:11:02;13.80;;;7.50;;
37903;SDS011;23738;50.422;18.758;2024-02-21T05:14:30;13.90;;;7.70;;
37903;SDS011;23738;50.422;18.758;2024-02-21T05:17:57;12.20;;;6.70;;
37903;SDS011;23738;50.422;18.758;2024-02-21T05:21:07;13.80;;;8.00;;
37903;SDS011;23738;50.422;18.758;2024-02-21T05:24:38;14.30;;;6.90;;
37903;SDS011;23738;50.422;18.758;2024-02-21T05:28:06;23.50;;;7.90;;
37903;SDS011;23738;50.422;18.758;2024-02-21T05:31:55;20.90;;;8.80;;
37903;SDS011;23738;50.422;18.758;2024-02-21T05:34:33;14.30;;;8.00;;
37903;SDS011;23738;50.422;18.758;2024-02-21T05:38:03;23.10;;;11.00;;
37903;SDS011;23738;50.422;18.758;2024-02-21T05:41:32;13.90;;;7.60;;
37903;SDS011;23738;50.422;18.758;2024-02-21T05:45:02;16.40;;;8.40;;
37903;SDS011;23738;50.422;18.758;2024-02-21T05:48:41;11.80;;;7.20;;
37903;SDS011;23738;50.422;18.758;2024-02-21T05:52:10;13.60;;;8.70;;
37903;SDS011;23738;50.422;18.758;2024-02-21T05:55:43;10.70;;;7.50;;
37903;SDS011;23738;50.422;18.758;2024-02-21T05:59:10;15.10;;;8.20;;
37903;SDS011;23738;50.422;18.758;2024-02-21T06:02:23;67.60;;;23.30;;
37903;SDS011;23738;50.422;18.758;2024-02-21T06:04:53;72.00;;;23.20;;
37903;SDS011;23738;50.422;18.758;2024-02-21T06:08:22;55.50;;;21.50;;
37903;SDS011;23738;50.422;18.758;2024-02-21T06:11:58;59.30;;;21.50;;
37903;SDS011;23738;50.422;18.758;2024-02-21T06:15:27;31.40;;;14.00;;
37903;SDS011;23738;50.422;18.758;2024-02-21T06:18:57;38.50;;;15.80;;
37903;SDS011;23738;50.422;18.758;2024-02-21T06:21:30;30.60;;;12.80;;
37903;SDS011;23738;50.422;18.758;2024-02-21T06:25:14;18.60;;;12.00;;
37903;SDS011;23738;50.422;18.758;2024-02-21T06:28:43;22.80;;;11.00;;
37903;SDS011;23738;50.422;18.758;2024-02-21T06:32:12;18.60;;;11.30;;
37903;SDS011;23738;50.422;18.758;2024-02-21T06:35:42;26.80;;;11.70;;
37903;SDS011;23738;50.422;18.758;2024-02-21T06:39:12;28.70;;;12.80;;
37903;SDS011;23738;50.422;18.758;2024-02-21T06:42:39;27.80;;;11.80;;
37903;SDS011;23738;50.422;18.758;2024-02-21T06:46:27;17.10;;;10.80;;
37903;SDS011;23738;50.422;18.758;2024-02-21T06:49:39;20.00;;;12.00;;
37903;SDS011;23738;50.422;18.758;2024-02-21T06:53:08;21.40;;;11.30;;
37903;SDS011;23738;50.422;18.758;2024-02-21T06:56:39;21.70;;;11.80;;
37903;SDS011;23738;50.422;18.758;2024-02-21T07:00:05;19.60;;;11.80;;
37903;SDS011;23738;50.422;18.758;2024-02-21T07:03:36;22.70;;;13.80;;
37903;SDS011;23738;50.422;18.758;2024-02-21T07:06:26;20.90;;;14.00;;
37903;SDS011;23738;50.422;18.758;2024-02-21T07:08:56;31.60;;;14.10;;
37903;SDS011;23738;50.422;18.758;2024-02-21T07:12:32;24.50;;;12.30;;
37903;SDS011;23738;50.422;18.758;2024-02-21T07:15:17;29.80;;;14.70;;
37903;SDS011;23738;50.422;18.758;2024-02-21T07:18:56;23.20;;;13.50;;
37903;SDS011;23738;50.422;18.758;2024-02-21T07:22:25;24.30;;;14.80;;
37903;SDS011;23738;50.422;18.758;2024-02-21T07:25:54;28.00;;;17.90;;
37903;SDS011;23738;50.422;18.758;2024-02-21T07:29:24;40.90;;;18.70;;
37903;SDS011;23738;50.422;18.758;2024-02-21T07:32:53;32.00;;;16.70;;
37903;SDS011;23738;50.422;18.758;2024-02-21T07:36:27;27.80;;;15.00;;
37903;SDS011;23738;50.422;18.758;2024-02-21T07:40:01;27.60;;;12.70;;
37903;SDS011;23738;50.422;18.758;2024-02-21T07:43:30;25.30;;;16.40;;
37903;SDS011;23738;50.422;18.758;2024-02-21T07:46:59;31.60;;;16.60;;
37903;SDS011;23738;50.422;18.758;2024-02-21T07:50:43;32.10;;;15.30;;
37903;SDS011;23738;50.422;18.758;2024-02-21T07:54:12;25.30;;;15.00;;
37903;SDS011;23738;50.422;18.758;2024-02-21T07:57:42;26.40;;;15.80;;
37903;SDS011;23738;50.422;18.758;2024-02-21T08:01:09;28.90;;;15.10;;
37903;SDS011;23738;50.422;18.758;2024-02-21T08:04:39;28.00;;;13.60;;
37903;SDS011;23738;50.422;18.758;2024-02-21T08:07:09;21.40;;;13.20;;
37903;SDS011;23738;50.422;18.758;2024-02-21T08:10:50;20.60;;;12.50;;
37903;SDS011;23738;50.422;18.758;2024-02-21T08:14:06;19.90;;;13.30;;
37903;SDS011;23738;50.422;18.758;2024-02-21T08:17:42;27.10;;;15.80;;
37903;SDS011;23738;50.422;18.758;2024-02-21T08:21:13;27.70;;;15.00;;
37903;SDS011;23738;50.422;18.758;2024-02-21T08:24:50;26.30;;;15.30;;
37903;SDS011;23738;50.422;18.758;2024-02-21T08:28:20;25.50;;;15.10;;
37903;SDS011;23738;50.422;18.758;2024-02-21T08:31:52;25.50;;;15.20;;
37903;SDS011;23738;50.422;18.758;2024-02-21T08:35:25;34.30;;;15.70;;
37903;SDS011;23738;50.422;18.758;2024-02-21T08:38:15;20.70;;;12.70;;
37903;SDS011;23738;50.422;18.758;2024-02-21T08:41:24;21.10;;;13.60;;
37903;SDS011;23738;50.422;18.758;2024-02-21T08:43:54;28.70;;;15.20;;
37903;SDS011;23738;50.422;18.758;2024-02-21T08:46:24;27.30;;;13.60;;
37903;SDS011;23738;50.422;18.758;2024-02-21T08:48:54;25.80;;;14.40;;
37903;SDS011;23738;50.422;18.758;2024-02-21T08:52:25;21.20;;;12.90;;
37903;SDS011;23738;50.422;18.758;2024-02-21T08:55:54;19.60;;;11.70;;
37903;SDS011;23738;50.422;18.758;2024-02-21T08:59:24;31.10;;;14.10;;
37903;SDS011;23738;50.422;18.758;2024-02-21T09:02:50;27.10;;;14.30;;
37903;SDS011;23738;50.422;18.758;2024-02-21T09:06:20;32.70;;;15.00;;
37903;SDS011;23738;50.422;18.758;2024-02-21T09:10:00;25.00;;;12.90;;
37903;SDS011;23738;50.422;18.758;2024-02-21T09:12:30;16.60;;;9.10;;
37903;SDS011;23738;50.422;18.758;2024-02-21T09:16:05;17.00;;;11.00;;
37903;SDS011;23738;50.422;18.758;2024-02-21T09:19:41;19.30;;;9.80;;
37903;SDS011;23738;50.422;18.758;2024-02-21T09:23:03;14.90;;;8.40;;
37903;SDS011;23738;50.422;18.758;2024-02-21T09:26:33;14.10;;;8.20;;
37903;SDS011;23738;50.422;18.758;2024-02-21T09:29:39;14.50;;;9.30;;
37903;SDS011;23738;50.422;18.758;2024-02-21T09:32:47;21.50;;;9.80;;
37903;SDS011;23738;50.422;18.758;2024-02-21T09:35:42;18.70;;;8.70;;
37903;SDS011;23738;50.422;18.758;2024-02-21T09:38:12;18.30;;;9.80;;
37903;SDS011;23738;50.422;18.758;2024-02-21T09:41:42;13.50;;;8.00;;
37903;SDS011;23738;50.422;18.758;2024-02-21T09:45:15;13.90;;;8.80;;
37903;SDS011;23738;50.422;18.758;2024-02-21T09:48:45;21.00;;;10.00;;
37903;SDS011;23738;50.422;18.758;2024-02-21T09:52:13;13.20;;;7.90;;
37903;SDS011;23738;50.422;18.758;2024-02-21T09:55:42;21.80;;;9.00;;
37903;SDS011;23738;50.422;18.758;2024-02-21T09:59:13;17.90;;;8.20;;
37903;SDS011;23738;50.422;18.758;2024-02-21T10:02:18;17.50;;;8.20;;
37903;SDS011;23738;50.422;18.758;2024-02-21T10:04:48;10.90;;;7.30;;
37903;SDS011;23738;50.422;18.758;2024-02-21T10:07:18;15.70;;;8.10;;
37903;SDS011;23738;50.422;18.758;2024-02-21T10:09:59;18.20;;;7.90;;
37903;SDS011;23738;50.422;18.758;2024-02-21T10:12:29;14.50;;;7.80;;
37903;SDS011;23738;50.422;18.758;2024-02-21T10:15:21;14.20;;;7.60;;
37903;SDS011;23738;50.422;18.758;2024-02-21T10:17:57;12.60;;;7.10;;
37903;SDS011;23738;50.422;18.758;2024-02-21T10:20:30;16.60;;;8.30;;
37903;SDS011;23738;50.422;18.758;2024-02-21T10:23:19;15.50;;;8.00;;
37903;SDS011;23738;50.422;18.758;2024-02-21T10:26:09;17.10;;;8.90;;
37903;SDS011;23738;50.422;18.758;2024-02-21T10:28:58;15.70;;;7.90;;
37903;SDS011;23738;50.422;18.758;2024-02-21T10:31:31;16.90;;;7.90;;
37903;SDS011;23738;50.422;18.758;2024-02-21T10:34:01;12.30;;;7.30;;
37903;SDS011;23738;50.422;18.758;2024-02-21T10:36:31;13.80;;;7.40;;
37903;SDS011;23738;50.422;18.758;2024-02-21T10:39:01;12.20;;;7.30;;
37903;SDS011;23738;50.422;18.758;2024-02-21T10:41:31;13.90;;;8.10;;
37903;SDS011;23738;50.422;18.758;2024-02-21T10:44:04;11.00;;;7.10;;
37903;SDS011;23738;50.422;18.758;2024-02-21T10:46:36;14.30;;;6.70;;
37903;SDS011;23738;50.422;18.758;2024-02-21T10:49:16;13.50;;;6.30;;
37903;SDS011;23738;50.422;18.758;2024-02-21T10:52:35;11.30;;;5.90;;
37903;SDS011;23738;50.422;18.758;2024-02-21T10:55:14;18.00;;;7.00;;
37903;SDS011;23738;50.422;18.758;2024-02-21T10:58:35;13.70;;;6.70;;
37903;SDS011;23738;50.422;18.758;2024-02-21T11:01:05;15.60;;;7.80;;
37903;SDS011;23738;50.422;18.758;2024-02-21T11:03:39;11.40;;;7.60;;
37903;SDS011;23738;50.422;18.758;2024-02-21T11:06:30;18.90;;;9.70;;
37903;SDS011;23738;50.422;18.758;2024-02-21T11:09:05;17.70;;;8.40;;
37903;SDS011;23738;50.422;18.758;2024-02-21T11:11:44;15.30;;;7.40;;
37903;SDS011;23738;50.422;18.758;2024-02-21T11:14:19;14.30;;;6.80;;
37903;SDS011;23738;50.422;18.758;2024-02-21T11:16:49;13.40;;;7.50;;
37903;SDS011;23738;50.422;18.758;2024-02-21T11:19:21;17.50;;;7.10;;
37903;SDS011;23738;50.422;18.758;2024-02-21T11:21:53;15.80;;;7.20;;
37903;SDS011;23738;50.422;18.758;2024-02-21T11:24:28;15.50;;;7.40;;
37903;SDS011;23738;50.422;18.758;2024-02-21T11:27:08;15.70;;;7.40;;
37903;SDS011;23738;50.422;18.758;2024-02-21T11:29:44;19.30;;;7.00;;
37903;SDS011;23738;50.422;18.758;2024-02-21T11:32:18;11.20;;;5.10;;
37903;SDS011;23738;50.422;18.758;2024-02-21T11:35:09;10.30;;;4.50;;
37903;SDS011;23738;50.422;18.758;2024-02-21T11:37:48;12.40;;;5.40;;
37903;SDS011;23738;50.422;18.758;2024-02-21T11:40:18;7.50;;;4.40;;
37903;SDS011;23738;50.422;18.758;2024-02-21T11:42:49;7.30;;;4.90;;
37903;SDS011;23738;50.422;18.758;2024-02-21T11:45:21;15.20;;;6.00;;
37903;SDS011;23738;50.422;18.758;2024-02-21T11:47:55;16.10;;;5.40;;
37903;SDS011;23738;50.422;18.758;2024-02-21T11:50:29;12.60;;;5.40;;
37903;SDS011;23738;50.422;18.758;2024-02-21T11:54:02;15.40;;;5.90;;
37903;SDS011;23738;50.422;18.758;2024-02-21T11:57:24;12.80;;;5.50;;
37903;SDS011;23738;50.422;18.758;2024-02-21T12:00:56;10.40;;;4.60;;
37903;SDS011;23738;50.422;18.758;2024-02-21T12:04:25;12.70;;;5.30;;
37903;SDS011;23738;50.422;18.758;2024-02-21T12:07:54;8.10;;;3.70;;
37903;SDS011;23738;50.422;18.758;2024-02-21T12:11:24;12.90;;;5.00;;
37903;SDS011;23738;50.422;18.758;2024-02-21T12:14:45;8.20;;;4.40;;
37903;SDS011;23738;50.422;18.758;2024-02-21T12:18:18;12.10;;;6.00;;
37903;SDS011;23738;50.422;18.758;2024-02-21T12:21:45;11.90;;;6.40;;
37903;SDS011;23738;50.422;18.758;2024-02-21T12:25:19;16.20;;;7.00;;
37903;SDS011;23738;50.422;18.758;2024-02-21T12:28:08;11.90;;;5.30;;
37903;SDS011;23738;50.422;18.758;2024-02-21T12:31:38;10.70;;;4.90;;
37903;SDS011;23738;50.422;18.758;2024-02-21T12:35:08;13.50;;;6.30;;
37903;SDS011;23738;50.422;18.758;2024-02-21T12:38:37;16.60;;;7.00;;
37903;SDS011;23738;50.422;18.758;2024-02-21T12:42:09;14.10;;;6.40;;
37903;SDS011;23738;50.422;18.758;2024-02-21T12:45:38;9.50;;;4.90;;
37903;SDS011;23738;50.422;18.758;2024-02-21T12:48:28;9.50;;;4.20;;
37903;SDS011;23738;50.422;18.758;2024-02-21T12:51:57;12.40;;;5.30;;
37903;SDS011;23738;50.422;18.758;2024-02-21T12:55:24;12.90;;;4.90;;
37903;SDS011;23738;50.422;18.758;2024-02-21T12:59:00;9.30;;;4.60;;
37903;SDS011;23738;50.422;18.758;2024-02-21T13:02:29;8.90;;;5.00;;
37903;SDS011;23738;50.422;18.758;2024-02-21T13:06:12;9.70;;;5.50;;
37903;SDS011;23738;50.422;18.758;2024-02-21T13:09:39;14.10;;;7.30;;
37903;SDS011;23738;50.422;18.758;2024-02-21T13:13:08;8.50;;;4.20;;
37903;SDS011;23738;50.422;18.758;2024-02-21T13:16:38;10.70;;;4.40;;
37903;SDS011;23738;50.422;18.758;2024-02-21T13:20:21;13.60;;;5.60;;
37903;SDS011;23738;50.422;18.758;2024-02-21T13:23:59;11.70;;;6.40;;
37903;SDS011;23738;50.422;18.758;2024-02-21T13:27:26;14.00;;;6.30;;
37903;SDS011;23738;50.422;18.758;2024-02-21T13:30:53;12.10;;;4.50;;
37903;SDS011;23738;50.422;18.758;2024-02-21T13:34:20;11.20;;;5.10;;
37903;SDS011;23738;50.422;18.758;2024-02-21T13:37:49;11.40;;;6.20;;
37903;SDS011;23738;50.422;18.758;2024-02-21T13:41:22;11.80;;;6.30;;
37903;SDS011;23738;50.422;18.758;2024-02-21T13:44:48;13.40;;;7.10;;
37903;SDS011;23738;50.422;18.758;2024-02-21T13:47:58;11.30;;;6.90;;
37903;SDS011;23738;50.422;18.758;2024-02-21T13:51:27;16.50;;;6.70;;
37903;SDS011;23738;50.422;18.758;2024-02-21T13:54:57;23.40;;;8.00;;
37903;SDS011;23738;50.422;18.758;2024-02-21T13:58:27;14.20;;;8.40;;
37903;SDS011;23738;50.422;18.758;2024-02-21T14:01:59;13.90;;;8.50;;
37903;SDS011;23738;50.422;18.758;2024-02-21T14:05:28;19.20;;;8.60;;
37903;SDS011;23738;50.422;18.758;2024-02-21T14:08:18;18.60;;;7.80;;
37903;SDS011;23738;50.422;18.758;2024-02-21T14:11:08;15.20;;;8.00;;
37903;SDS011;23738;50.422;18.758;2024-02-21T14:14:37;13.60;;;8.40;;
37903;SDS011;23738;50.422;18.758;2024-02-21T14:18:07;15.40;;;6.80;;
37903;SDS011;23738;50.422;18.758;2024-02-21T14:21:36;10.20;;;5.50;;
37903;SDS011;23738;50.422;18.758;2024-02-21T14:25:09;11.90;;;5.90;;
37903;SDS011;23738;50.422;18.758;2024-02-21T14:28:38;10.90;;;6.70;;
37903;SDS011;23738;50.422;18.758;2024-02-21T14:31:48;13.30;;;5.70;;
37903;SDS011;23738;50.422;18.758;2024-02-21T14:35:02;14.80;;;5.40;;
37903;SDS011;23738;50.422;18.758;2024-02-21T14:38:27;15.10;;;5.40;;
37903;SDS011;23738;50.422;18.758;2024-02-21T14:42:03;16.20;;;5.40;;
37903;SDS011;23738;50.422;18.758;2024-02-21T14:45:38;12.80;;;5.50;;
37903;SDS011;23738;50.422;18.758;2024-02-21T14:48:47;12.10;;;4.60;;
37903;SDS011;23738;50.422;18.758;2024-02-21T14:52:17;11.80;;;5.00;;
37903;SDS011;23738;50.422;18.758;2024-02-21T14:55:46;12.00;;;8.10;;
37903;SDS011;23738;50.422;18.758;2024-02-21T14:59:11;14.80;;;5.90;;
37903;SDS011;23738;50.422;18.758;2024-02-21T15:02:41;10.30;;;4.80;;
37903;SDS011;23738;50.422;18.758;2024-02-21T15:06:10;12.60;;;6.30;;
37903;SDS011;23738;50.422;18.758;2024-02-21T15:09:40;10.60;;;6.40;;
37903;SDS011;23738;50.422;18.758;2024-02-21T15:12:30;22.90;;;9.20;;
37903;SDS011;23738;50.422;18.758;2024-02-21T15:15:00;21.50;;;10.00;;
37903;SDS011;23738;50.422;18.758;2024-02-21T15:18:10;23.50;;;8.70;;
37903;SDS011;23738;50.422;18.758;2024-02-21T15:21:04;19.20;;;9.60;;
37903;SDS011;23738;50.422;18.758;2024-02-21T15:24:13;21.20;;;10.90;;
37903;SDS011;23738;50.422;18.758;2024-02-21T15:26:43;26.10;;;9.90;;
37903;SDS011;23738;50.422;18.758;2024-02-21T15:30:14;22.30;;;9.20;;
37903;SDS011;23738;50.422;18.758;2024-02-21T15:36:50;18.70;;;8.70;;
37903;SDS011;23738;50.422;18.758;2024-02-21T15:40:19;17.70;;;7.60;;
37903;SDS011;23738;50.422;18.758;2024-02-21T15:43:51;17.70;;;6.80;;
37903;SDS011;23738;50.422;18.758;2024-02-21T15:47:20;16.30;;;7.30;;
37903;SDS011;23738;50.422;18.758;2024-02-21T15:50:52;20.30;;;9.80;;
37903;SDS011;23738;50.422;18.758;2024-02-21T15:53:22;14.80;;;8.80;;
37903;SDS011;23738;50.422;18.758;2024-02-21T15:55:51;16.70;;;10.20;;
37903;SDS011;23738;50.422;18.758;2024-02-21T15:59:01;23.40;;;10.40;;
37903;SDS011;23738;50.422;18.758;2024-02-21T16:02:10;22.90;;;7.70;;
37903;SDS011;23738;50.422;18.758;2024-02-21T16:04:41;17.80;;;8.70;;
37903;SDS011;23738;50.422;18.758;2024-02-21T16:08:05;15.60;;;8.70;;
37903;SDS011;23738;50.422;18.758;2024-02-21T16:11:35;21.50;;;10.00;;
37903;SDS011;23738;50.422;18.758;2024-02-21T16:14:05;20.40;;;10.30;;
37903;SDS011;23738;50.422;18.758;2024-02-21T16:16:35;20.90;;;10.70;;
37903;SDS011;23738;50.422;18.758;2024-02-21T16:19:25;22.00;;;12.50;;
37903;SDS011;23738;50.422;18.758;2024-02-21T16:21:55;25.20;;;11.30;;
37903;SDS011;23738;50.422;18.758;2024-02-21T16:24:25;26.80;;;11.30;;
37903;SDS011;23738;50.422;18.758;2024-02-21T16:27:15;25.40;;;12.20;;
37903;SDS011;23738;50.422;18.758;2024-02-21T16:30:40;23.30;;;11.80;;
37903;SDS011;23738;50.422;18.758;2024-02-21T16:33:10;24.50;;;10.50;;
37903;SDS011;23738;50.422;18.758;2024-02-21T16:35:39;19.60;;;11.70;;
37903;SDS011;23738;50.422;18.758;2024-02-21T16:38:49;17.90;;;10.20;;
37903;SDS011;23738;50.422;18.758;2024-02-21T16:41:38;21.60;;;10.70;;
37903;SDS011;23738;50.422;18.758;2024-02-21T16:44:09;24.90;;;9.60;;
37903;SDS011;23738;50.422;18.758;2024-02-21T16:46:59;16.60;;;10.10;;
37903;SDS011;23738;50.422;18.758;2024-02-21T16:50:26;29.80;;;10.60;;
37903;SDS011;23738;50.422;18.758;2024-02-21T16:53:16;19.20;;;10.60;;
37903;SDS011;23738;50.422;18.758;2024-02-21T16:56:02;20.40;;;10.70;;
37903;SDS011;23738;50.422;18.758;2024-02-21T16:59:12;24.50;;;11.10;;
37903;SDS011;23738;50.422;18.758;2024-02-21T17:02:03;35.90;;;15.20;;
37903;SDS011;23738;50.422;18.758;2024-02-21T17:05:38;29.60;;;12.80;;
37903;SDS011;23738;50.422;18.758;2024-02-21T17:08:28;31.00;;;12.50;;
37903;SDS011;23738;50.422;18.758;2024-02-21T17:11:39;38.10;;;15.80;;
37903;SDS011;23738;50.422;18.758;2024-02-21T17:14:30;57.80;;;23.70;;
37903;SDS011;23738;50.422;18.758;2024-02-21T17:17:00;52.30;;;23.50;;
37903;SDS011;23738;50.422;18.758;2024-02-21T17:19:33;45.20;;;19.00;;
37903;SDS011;23738;50.422;18.758;2024-02-21T17:23:03;32.20;;;13.50;;
37903;SDS011;23738;50.422;18.758;2024-02-21T17:26:12;35.70;;;17.50;;
37903;SDS011;23738;50.422;18.758;2024-02-21T17:28:59;48.70;;;22.50;;
37903;SDS011;23738;50.422;18.758;2024-02-21T17:32:35;44.10;;;21.00;;
37903;SDS011;23738;50.422;18.758;2024-02-21T17:35:18;40.80;;;19.40;;
37903;SDS011;23738;50.422;18.758;2024-02-21T17:37:49;37.70;;;16.40;;
37903;SDS011;23738;50.422;18.758;2024-02-21T17:40:19;32.60;;;14.00;;
37903;SDS011;23738;50.422;18.758;2024-02-21T17:43:09;28.20;;;12.30;;
37903;SDS011;23738;50.422;18.758;2024-02-21T17:45:39;28.20;;;13.40;;
37903;SDS011;23738;50.422;18.758;2024-02-21T17:48:09;30.30;;;13.10;;
37903;SDS011;23738;50.422;18.758;2024-02-21T17:53:25;28.80;;;15.40;;
37903;SDS011;23738;50.422;18.758;2024-02-21T17:56:52;32.40;;;15.60;;
37903;SDS011;23738;50.422;18.758;2024-02-21T18:00:14;35.70;;;17.00;;
37903;SDS011;23738;50.422;18.758;2024-02-21T18:03:48;34.80;;;14.10;;
37903;SDS011;23738;50.422;18.758;2024-02-21T18:07:15;40.30;;;15.50;;
37903;SDS011;23738;50.422;18.758;2024-02-21T18:10:29;32.10;;;12.90;;
37903;SDS011;23738;50.422;18.758;2024-02-21T18:14:05;32.50;;;13.10;;
37903;SDS011;23738;50.422;18.758;2024-02-21T18:16:55;23.10;;;12.70;;
37903;SDS011;23738;50.422;18.758;2024-02-21T18:20:22;36.30;;;14.20;;
37903;SDS011;23738;50.422;18.758;2024-02-21T18:23:41;40.30;;;15.60;;
37903;SDS011;23738;50.422;18.758;2024-02-21T18:27:25;28.70;;;14.90;;
37903;SDS011;23738;50.422;18.758;2024-02-21T18:30:52;35.60;;;16.10;;
37903;SDS011;23738;50.422;18.758;2024-02-21T18:33:43;38.00;;;17.10;;